Latest Weather Observations for Cocos Island

IDW60801

Issued at 7:03 pm WST Sunday 1 March 2015 (issued every 30 minutes, with the page automatically refreshed every 10 minutes)

About weather observations | Map of weather stations | Latest weather observations for WA | Other Formats
Station Details ID: 200284 Name: COCOS ISLAND AIRPORT Lat: -12.19 Lon: 96.83 Height: 3.0 m
Data from the previous 72 hours. | See also: Recent months at Cocos Island
Date/Time
WST
Temp
°C
App
Temp
°C
Dew
Point
Rel
Hum
%
Delta-T
°C
Wind Press
QNH
hPa
Press
MSL
hPa
Rain
since 9 am
mm
Dir
 
Spd
km/h
Gust
km/h
Spd
kts
Gust
kts
01/07:00pm 28.0 29.2 22.1 70 4.0 S 19 24 10 13 1009.5 - 0.0
01/06:30pm 28.6 30.0 21.8 66 4.6 S 17 22 9 12 1009.2 - 0.0
01/06:00pm 29.0 30.5 22.0 66 4.7 S 17 20 9 11 1008.9 - 0.0
01/05:30pm 29.1 30.3 22.2 66 4.7 S 19 20 10 11 1008.9 - 0.0
01/05:00pm 29.5 31.1 22.9 67 4.5 S 19 24 10 13 1009.1 1009.1 0.0
01/04:30pm 29.3 31.5 23.2 69 4.2 S 17 22 9 12 1009.2 - 0.0
01/04:00pm 29.3 31.8 23.2 69 4.2 S 15 20 8 11 1009.5 - 0.0
01/03:30pm 29.1 31.1 23.0 69 4.2 S 17 20 9 11 1009.8 - 0.0
01/03:00pm 29.1 31.3 23.3 71 4.0 S 17 22 9 12 1010.4 - 0.0
01/02:30pm 29.0 30.7 23.0 70 4.1 S 19 22 10 12 1010.8 - 0.0
01/02:00pm 28.8 31.2 23.6 73 3.6 S 17 20 9 11 1011.1 1011.1 0.0
01/01:30pm 28.8 31.2 22.9 70 4.0 S 15 20 8 11 1011.3 - 0.0
01/01:00pm 28.7 31.8 22.8 70 4.0 SE 11 13 6 7 1011.6 - 0.0
01/12:30pm 28.2 30.9 22.9 73 3.6 ESE 13 15 7 8 1011.7 - 0.0
01/12:00pm 27.8 29.7 22.8 74 3.4 SE 17 20 9 11 1011.8 - 0.0
01/11:30am 27.4 29.4 23.9 81 2.4 ESE 20 26 11 14 1011.9 - 0.0
01/11:00am 28.2 29.2 21.8 68 4.3 S 19 22 10 12 1011.9 1011.9 -
01/10:30am 27.5 28.6 22.3 73 3.5 S 20 24 11 13 1011.9 - -
01/10:00am 26.9 28.5 23.8 83 2.1 S 22 28 12 15 1011.7 - 4.8
01/09:30am 26.5 27.7 22.2 77 2.9 S 19 22 10 12 1011.5 - 4.8
01/09:00am 26.2 29.1 22.5 80 2.5 SW 11 15 6 8 1011.1 - 4.8
01/08:30am 25.7 29.6 22.6 83 2.1 WSW 6 9 3 5 1010.7 - 4.8
01/08:00am 24.8 27.4 22.6 87 1.5 WSW 13 15 7 8 1010.4 1010.4 4.8
01/07:00am 24.1 27.3 22.3 90 1.2 SE 9 13 5 7 1010.0 - 4.8
01/06:42am 23.8 27.0 22.3 91 1.0 ESE 9 11 5 6 1009.9 - 4.8
01/06:30am 23.8 26.3 22.5 92 0.9 SE 13 17 7 9 1009.9 - 4.2
01/06:27am 23.9 26.1 22.6 92 0.9 SE 15 17 8 9 1009.9 - 3.8
01/06:01am 25.1 27.7 22.6 86 1.7 SSE 13 17 7 9 1009.8 - 1.6
01/06:00am 25.1 27.7 22.6 86 1.7 SSE 13 17 7 9 1009.8 - 1.6
01/05:30am 25.5 29.2 23.3 88 1.5 ESE 9 17 5 9 1009.6 - 1.4
01/05:04am 25.4 28.7 22.6 84 1.9 E 9 13 5 7 1009.6 - 1.2
01/05:00am 25.3 28.4 22.9 86 1.6 E 11 13 6 7 1009.6 1009.6 1.2
01/04:42am 25.0 28.0 22.6 86 1.6 E 11 17 6 9 1009.8 - 0.8
01/04:30am 26.2 28.7 22.5 80 2.5 ENE 13 17 7 9 1009.7 - 0.0
01/04:00am 26.6 29.8 23.1 81 2.4 NE 11 17 6 9 1009.8 - 0.0
01/03:30am 26.5 30.4 23.0 81 2.4 SE 7 13 4 7 1010.1 - 0.0
01/03:00am 27.1 30.6 22.8 77 2.9 SE 9 11 5 6 1010.3 - 0.0
01/02:30am 27.2 30.0 22.3 74 3.3 SSE 11 15 6 8 1010.5 - 0.0
01/02:00am 27.0 30.4 22.7 77 2.9 SE 9 13 5 7 1010.8 1010.8 0.0
01/01:30am 26.7 30.6 23.0 80 2.5 SE 7 11 4 6 1011.1 - 0.0
01/01:00am 27.2 30.7 22.8 77 3.0 ESE 9 15 5 8 1011.2 - 0.0
01/12:30am 27.2 30.7 22.8 77 3.0 ESE 9 13 5 7 1011.4 - 0.0
01/12:00am 27.0 30.6 23.0 79 2.7 ESE 9 13 5 7 1011.5 - 0.0
 
Date/Time
WST
Temp
°C
App
Temp
°C
Dew
Point
Rel
Hum
%
Delta-T
°C
Wind Press
QNH
hPa
Press
MSL
hPa
Rain
since 9 am
mm
Dir
 
Spd
km/h
Gust
km/h
Spd
kts
Gust
kts
28/11:30pm 27.2 30.7 22.9 77 2.9 ESE 9 11 5 6 1011.6 - 0.0
28/11:00pm 27.5 30.6 22.8 75 3.2 ESE 11 15 6 8 1011.4 1011.4 0.0
28/10:30pm 27.5 30.3 22.3 73 3.5 ESE 11 13 6 7 1011.2 - 0.0
28/10:00pm 27.7 30.1 22.2 72 3.7 ESE 13 17 7 9 1010.9 - 0.0
28/09:30pm 27.7 29.9 21.9 70 3.9 ESE 13 17 7 9 1010.4 - 0.0
28/09:00pm 27.8 29.9 21.7 69 4.1 ESE 13 17 7 9 1010.1 - 0.0
28/08:30pm 27.8 30.2 22.2 71 3.8 ESE 13 17 7 9 1009.9 - 0.0
28/08:00pm 27.9 29.8 22.0 70 4.0 ESE 15 19 8 10 1009.7 1009.7 0.0
28/07:30pm 28.2 30.2 22.3 70 4.0 ESE 15 19 8 10 1009.3 - 0.0
28/07:00pm 28.7 30.7 21.5 65 4.8 ESE 13 17 7 9 1009.0 - 0.0
28/06:30pm 28.6 30.0 21.9 67 4.5 ESE 17 20 9 11 1008.9 - 0.0
28/06:00pm 29.1 30.9 21.8 64 4.9 E 15 20 8 11 1008.9 - 0.0
28/05:30pm 29.1 30.3 21.5 63 5.1 ESE 17 20 9 11 1008.8 - 0.0
28/05:00pm 28.9 30.7 21.9 66 4.7 SE 15 20 8 11 1008.9 1008.9 0.0
28/04:30pm 29.2 31.2 22.3 66 4.7 SE 15 20 8 11 1009.0 - 0.0
28/04:00pm 30.1 32.7 22.6 64 5.1 ESE 13 19 7 10 1009.2 - 0.0
28/03:30pm 29.0 30.8 21.9 65 4.8 ESE 15 20 8 11 1009.5 - 0.0
28/03:00pm 28.7 30.4 21.7 66 4.7 ESE 15 20 8 11 1009.6 - 0.0
28/02:30pm 29.0 31.4 22.2 66 4.6 ESE 13 19 7 10 1009.9 - 0.0
28/02:00pm 29.1 30.9 22.6 68 4.4 ESE 17 20 9 11 1010.4 1010.4 0.0
28/01:30pm 28.7 30.2 22.0 67 4.5 ESE 17 22 9 12 1010.7 - 0.0
28/01:00pm 29.0 30.3 22.4 67 4.5 ESE 19 24 10 13 1010.9 - 0.0
28/12:30pm 28.5 30.0 22.0 68 4.4 SE 17 22 9 12 1011.2 - 0.0
28/12:00pm 28.3 29.9 22.2 69 4.1 SE 17 20 9 11 1011.3 - 0.0
28/11:30am 28.3 29.9 22.1 69 4.2 SE 17 22 9 12 1011.4 - 0.0
28/11:00am 28.7 30.4 22.3 68 4.3 SE 17 22 9 12 1011.5 1011.5 0.0
28/10:30am 29.2 31.0 22.6 67 4.5 SE 17 22 9 12 1011.5 - 0.0
28/10:00am 27.2 30.5 23.9 82 2.3 ENE 13 19 7 10 1011.3 - 0.0
28/09:30am 26.6 29.2 24.0 86 1.8 E 17 22 9 12 1011.2 - 0.0
28/09:00am 26.6 30.6 23.8 84 1.9 E 9 13 5 7 1011.0 - 0.0
28/08:30am 26.3 29.2 23.1 82 2.2 E 13 17 7 9 1010.6 - 0.0
28/08:00am 26.2 29.3 23.6 85 1.8 E 13 20 7 11 1010.1 1010.1 0.0
28/07:30am 25.9 28.3 24.2 90 1.2 E 19 24 10 13 1009.8 - 0.0
28/07:00am 25.9 27.0 23.7 88 1.5 E 24 28 13 15 1009.2 - 0.0
28/06:30am 26.1 27.7 23.2 84 2.0 E 20 24 11 13 1009.3 - 0.0
28/06:00am 25.7 26.7 23.5 88 1.5 ENE 24 28 13 15 1009.0 - 0.0
28/05:30am 25.3 26.4 23.7 91 1.1 ENE 24 28 13 15 1009.1 - 0.0
28/05:00am 25.5 27.4 23.7 90 1.2 E 20 26 11 14 1009.2 1009.2 0.0
28/04:30am 25.4 27.0 23.3 88 1.4 E 20 24 11 13 1009.2 - 0.0
28/04:00am 25.2 26.5 23.4 90 1.2 E 22 26 12 14 1009.2 - 0.0
28/03:30am 25.8 28.0 23.2 85 1.8 SE 17 22 9 12 1009.4 - 0.0
28/03:00am 26.5 28.9 23.0 81 2.4 ESE 15 22 8 12 1009.8 - 0.0
28/02:30am 26.6 28.8 23.2 81 2.3 ESE 17 22 9 12 1010.1 - 0.0
28/02:00am 26.4 30.0 23.8 85 1.8 E 11 15 6 8 1010.1 1010.1 0.0
28/01:30am 26.4 29.7 23.8 85 1.8 E 13 17 7 9 1010.5 - 0.0
28/01:00am 26.4 28.9 23.8 85 1.8 E 17 20 9 11 1010.7 - 0.0
28/12:30am 26.4 28.8 23.6 84 1.9 E 17 20 9 11 1010.9 - 0.0
28/12:00am 26.3 28.1 23.5 84 1.9 ESE 20 26 11 14 1011.1 - 0.0
 
Date/Time
WST
Temp
°C
App
Temp
°C
Dew
Point
Rel
Hum
%
Delta-T
°C
Wind Press
QNH
hPa
Press
MSL
hPa
Rain
since 9 am
mm
Dir
 
Spd
km/h
Gust
km/h
Spd
kts
Gust
kts
27/11:30pm 26.3 27.5 23.2 83 2.1 SE 22 30 12 16 1011.1 - 0.0
27/11:00pm 26.2 27.4 23.9 87 1.6 SE 24 30 13 16 1010.9 1010.9 0.0
27/10:30pm 26.3 27.9 23.8 86 1.7 SE 22 30 12 16 1010.5 - 0.0
27/10:00pm 26.3 28.3 24.0 87 1.6 SE 20 28 11 15 1010.4 - 0.0
27/09:30pm 26.4 27.7 24.1 87 1.6 SE 24 32 13 17 1010.0 - 0.0
27/09:00pm 26.6 27.7 23.7 84 2.0 SE 24 30 13 16 1009.6 - 0.0
27/08:30pm 26.7 28.6 23.8 84 2.0 SSE 20 28 11 15 1009.3 - 0.0
27/08:00pm 27.2 29.0 23.2 79 2.7 SSE 19 22 10 12 1009.0 1009.0 0.0
27/07:30pm 27.1 29.1 23.6 81 2.4 SSE 19 26 10 14 1008.9 - 0.0
27/07:00pm 27.8 30.2 23.7 78 2.8 SE 17 24 9 13 1008.7 - 0.0
27/06:30pm 27.8 29.8 23.9 79 2.7 SE 20 26 11 14 1008.5 - 0.0
27/06:00pm 28.6 30.0 22.9 71 3.9 ESE 20 26 11 14 1008.3 - 0.0
27/05:30pm 28.7 29.5 22.5 69 4.2 SE 22 28 12 15 1008.1 - 0.0
27/05:00pm 28.9 29.6 22.3 67 4.5 ESE 22 26 12 14 1008.0 1008.0 0.0
27/04:30pm 29.1 29.8 22.2 66 4.7 SE 22 28 12 15 1008.1 - 0.0
27/04:00pm 29.2 30.1 21.9 64 4.9 SE 20 26 11 14 1008.3 - 0.0
27/03:30pm 29.1 30.0 22.6 68 4.4 ESE 22 28 12 15 1008.3 - 0.0
27/03:00pm 29.3 30.3 22.9 68 4.4 ESE 22 28 12 15 1008.7 - 0.0
27/02:30pm 28.8 30.2 22.8 70 4.1 SE 20 28 11 15 1009.0 - 0.0
27/02:00pm 29.3 30.2 22.7 67 4.5 ESE 22 30 12 16 1009.3 1009.3 0.0
27/01:30pm 28.8 30.9 23.1 71 3.9 ESE 17 22 9 12 1010.0 - 0.0
27/01:00pm 28.6 30.3 23.0 71 3.8 ESE 19 28 10 15 1010.4 - 0.0
27/12:30pm 28.5 29.0 22.6 70 4.0 SE 24 30 13 16 1010.5 - 0.0
27/12:00pm 28.4 28.9 22.7 71 3.9 ESE 24 32 13 17 1010.4 - 0.0
27/11:30am 28.4 29.2 23.1 73 3.6 ESE 24 32 13 17 1010.6 - 0.0
27/11:00am 28.7 29.2 22.7 70 4.1 ESE 24 33 13 18 1010.7 1010.7 3.4
27/10:30am 28.1 29.2 23.6 76 3.1 SE 24 33 13 18 1010.7 - 3.4
27/10:00am 28.0 29.1 23.6 77 3.0 SE 24 32 13 17 1010.5 - 3.4
27/09:30am 27.6 28.5 23.4 78 2.9 SE 24 33 13 18 1010.3 - 3.4
27/09:00am 27.5 28.4 23.3 78 2.9 SE 24 32 13 17 1009.8 - 3.4
27/08:30am 27.3 28.6 22.7 76 3.1 SE 20 26 11 14 1009.6 - 3.4
27/08:00am 27.1 27.9 21.7 72 3.6 SE 20 26 11 14 1009.5 1009.5 3.4
27/07:30am 26.9 28.6 22.3 76 3.1 SE 17 24 9 13 1009.3 - 3.4
27/07:00am 27.1 28.2 22.0 73 3.4 SE 19 24 10 13 1009.1 - 3.4
27/06:30am 27.0 28.3 22.6 77 3.0 SE 20 24 11 13 1009.0 - 3.4
27/06:00am 27.2 28.0 22.5 75 3.2 SE 22 30 12 16 1008.7 - 3.4
27/05:30am 27.3 28.6 22.4 74 3.3 SE 19 24 10 13 1008.7 - 3.4
27/05:00am 27.0 28.4 22.6 77 3.0 SE 19 24 10 13 1008.8 1008.8 3.4
27/04:30am 27.2 29.0 22.5 75 3.2 SE 17 20 9 11 1009.0 - 3.4
27/04:00am 27.3 28.3 21.1 69 4.1 SE 17 22 9 12 1009.0 - 3.4
27/03:30am 27.3 28.4 21.9 72 3.6 SE 19 22 10 12 1009.4 - 3.4
27/03:00am 27.4 28.3 21.9 72 3.7 SE 20 26 11 14 1009.8 - 3.4
27/02:30am 27.3 28.7 21.9 72 3.6 SE 17 24 9 13 1010.0 - 3.4
27/02:00am 27.4 28.7 21.7 71 3.8 SE 17 20 9 11 1010.4 1010.4 3.4
27/01:30am 27.3 28.7 21.9 72 3.6 SE 17 20 9 11 1010.8 - 3.4
27/01:00am 27.2 28.8 22.1 73 3.4 SE 17 20 9 11 1011.1 - 3.4
27/12:30am 27.3 28.6 22.4 74 3.3 SE 19 22 10 12 1011.4 - 3.4
27/12:00am 27.4 28.8 22.5 74 3.3 SE 19 24 10 13 1011.5 - 3.4
 
Date/Time
WST
Temp
°C
App
Temp
°C
Dew
Point
Rel
Hum
%
Delta-T
°C
Wind Press
QNH
hPa
Press
MSL
hPa
Rain
since 9 am
mm
Dir
 
Spd
km/h
Gust
km/h
Spd
kts
Gust
kts
26/11:30pm 27.6 28.5 21.9 71 3.8 ESE 20 24 11 13 1011.5 - 3.4
26/11:00pm 27.4 28.7 22.4 74 3.4 SE 19 24 10 13 1011.1 1011.1 3.4
26/10:30pm 27.6 28.7 21.9 71 3.8 SE 19 24 10 13 1010.9 - 3.4
26/10:00pm 27.4 29.1 22.4 74 3.4 SE 17 20 9 11 1010.7 - 3.4
26/09:30pm 27.5 29.5 22.2 73 3.6 SE 15 20 8 11 1010.5 - 3.4
26/09:00pm 27.6 29.4 21.9 71 3.8 SE 15 20 8 11 1010.2 - 3.4

Other Formats:

Comma delimited format used in spreadsheet applications
http://www.bom.gov.au/fwo/IDW60801/IDW60801.96996.axf

JavaScript Object Notation format (JSON) in row-major order
http://www.bom.gov.au/fwo/IDW60801/IDW60801.96996.json